createdAt,value
2017-05-25T00:00:49.952Z,101124
2017-05-25T00:01:49.700Z,101122
2017-05-25T00:02:49.494Z,101130
2017-05-25T00:03:50.097Z,101124
2017-05-25T00:04:49.592Z,101126
2017-05-25T00:05:50.175Z,101129
2017-05-25T00:06:50.233Z,101130
2017-05-25T00:07:50.038Z,101130
2017-05-25T00:08:49.681Z,101126
2017-05-25T00:09:50.225Z,101128
2017-05-25T00:10:49.761Z,101128
2017-05-25T00:11:49.710Z,101127
2017-05-25T00:12:49.860Z,101126
2017-05-25T00:13:50.081Z,101132
2017-05-25T00:14:49.874Z,101123
2017-05-25T00:15:50.548Z,101131
2017-05-25T00:16:50.554Z,101131
2017-05-25T00:17:50.619Z,101128
2017-05-25T00:18:50.101Z,101130
2017-05-25T00:19:50.994Z,101132
2017-05-25T00:20:50.226Z,101128
2017-05-25T00:21:50.316Z,101128
2017-05-25T00:22:50.947Z,101125
2017-05-25T00:23:50.465Z,101124
2017-05-25T00:24:50.474Z,101127
2017-05-25T00:25:50.710Z,101129
2017-05-25T00:26:51.076Z,101125
2017-05-25T00:27:51.113Z,101126
2017-05-25T00:28:50.648Z,101129
2017-05-25T00:29:50.640Z,101129
2017-05-25T00:30:51.235Z,101131
2017-05-25T00:31:51.558Z,101126
2017-05-25T00:32:50.794Z,101129
2017-05-25T00:33:51.419Z,101131
2017-05-25T00:34:51.439Z,101129
2017-05-25T00:35:50.928Z,101126
2017-05-25T00:36:51.596Z,101130
2017-05-25T00:37:51.964Z,101131
2017-05-25T00:38:51.818Z,101133
2017-05-25T00:39:51.832Z,101130
2017-05-25T00:40:51.385Z,101135
2017-05-25T00:41:51.387Z,101127
2017-05-25T00:42:51.352Z,101136
2017-05-25T00:43:52.210Z,101134
2017-05-25T00:44:51.451Z,101137
2017-05-25T00:45:51.516Z,101139
2017-05-25T00:46:51.499Z,101141
2017-05-25T00:47:52.170Z,101138
2017-05-25T00:48:52.245Z,101138
2017-05-25T00:49:52.553Z,101137
2017-05-25T00:50:51.809Z,101133
2017-05-25T00:51:51.823Z,101138
2017-05-25T00:52:52.437Z,101141
2017-05-25T00:53:52.479Z,101144
2017-05-25T00:54:52.010Z,101140
2017-05-25T00:55:52.358Z,101139
2017-05-25T00:56:52.577Z,101137
2017-05-25T00:57:52.675Z,101129
2017-05-25T00:58:52.741Z,101137
2017-05-25T00:59:52.804Z,101140
2017-05-25T01:00:52.326Z,101139
2017-05-25T01:01:52.663Z,101141
2017-05-25T01:02:52.958Z,101130
2017-05-25T01:03:52.481Z,101136
2017-05-25T01:04:52.587Z,101134
2017-05-25T01:05:52.582Z,101133
2017-05-25T01:06:53.255Z,101133
2017-05-25T01:07:53.566Z,101134
2017-05-25T01:08:52.784Z,101131
2017-05-25T01:09:52.825Z,101133
2017-05-25T01:10:52.855Z,101127
2017-05-25T01:11:52.848Z,101137
2017-05-25T01:12:52.914Z,101135
2017-05-25T01:13:53.751Z,101135
2017-05-25T01:14:52.978Z,101129
2017-05-25T01:15:53.010Z,101131
2017-05-25T01:16:53.589Z,101132
2017-05-25T01:17:53.603Z,101130
2017-05-25T01:18:53.660Z,101131
2017-05-25T01:19:53.512Z,101130
2017-05-25T01:20:53.811Z,101129
2017-05-25T01:21:53.943Z,101128
2017-05-25T01:22:53.410Z,101130
2017-05-25T01:23:53.499Z,101129
2017-05-25T01:24:53.564Z,101129
2017-05-25T01:25:53.972Z,101132
2017-05-25T01:26:53.683Z,101131
2017-05-25T01:27:54.249Z,101130
2017-05-25T01:28:54.289Z,101127
2017-05-25T01:29:54.322Z,101126
2017-05-25T01:30:54.395Z,101126
2017-05-25T01:31:54.171Z,101121
2017-05-25T01:32:54.545Z,101126
2017-05-25T01:33:54.615Z,101126
2017-05-25T01:34:54.619Z,101125
2017-05-25T01:35:54.683Z,101123
2017-05-25T01:36:54.215Z,101121
2017-05-25T01:37:55.041Z,101114
2017-05-25T01:38:54.293Z,101120
2017-05-25T01:39:54.300Z,101121
2017-05-25T01:40:54.824Z,101120
2017-05-25T01:41:54.875Z,101125
2017-05-25T01:42:54.416Z,101128
2017-05-25T01:43:54.783Z,101130
2017-05-25T01:44:54.478Z,101132
2017-05-25T01:45:55.060Z,101131
2017-05-25T01:46:54.639Z,101131
2017-05-25T01:47:55.136Z,101139
2017-05-25T01:48:55.180Z,101137
2017-05-25T01:49:55.569Z,101140
2017-05-25T01:50:54.806Z,101136
2017-05-25T01:51:54.848Z,101135
2017-05-25T01:52:55.468Z,101143
2017-05-25T01:53:54.890Z,101141
2017-05-25T01:54:55.009Z,101136
2017-05-25T01:55:55.299Z,101133
2017-05-25T01:56:55.583Z,101135
2017-05-25T01:57:55.110Z,101138
2017-05-25T01:58:55.142Z,101141
2017-05-25T01:59:55.210Z,101141
2017-05-25T02:00:55.249Z,101144
2017-05-25T02:01:56.180Z,101143
2017-05-25T02:02:55.423Z,101145
2017-05-25T02:03:55.391Z,101139
2017-05-25T02:04:55.984Z,101146
2017-05-25T02:05:56.059Z,101147
2017-05-25T02:06:56.163Z,101147
2017-05-25T02:07:56.489Z,101147
2017-05-25T02:08:56.187Z,101148
2017-05-25T02:09:55.745Z,101143
2017-05-25T02:10:56.313Z,101142
2017-05-25T02:11:55.791Z,101143
2017-05-25T02:12:55.871Z,101139
2017-05-25T02:13:56.176Z,101137
2017-05-25T02:14:56.500Z,101136
2017-05-25T02:15:55.989Z,101142
2017-05-25T02:16:56.005Z,101141
2017-05-25T02:17:56.112Z,101135
2017-05-25T02:18:56.134Z,101136
2017-05-25T02:19:56.955Z,101126
2017-05-25T02:20:56.239Z,101126
2017-05-25T02:21:56.225Z,101127
2017-05-25T02:22:56.312Z,101124
2017-05-25T02:23:56.922Z,101121
2017-05-25T02:24:56.495Z,101122
2017-05-25T02:25:56.761Z,101123
2017-05-25T02:26:57.105Z,101126
2017-05-25T02:27:57.125Z,101120
2017-05-25T02:28:56.699Z,101128
2017-05-25T02:30:56.765Z,101129
2017-05-25T02:31:57.671Z,101129
2017-05-25T02:32:57.459Z,101124
2017-05-25T02:33:57.511Z,101130
2017-05-25T02:34:57.606Z,101129
2017-05-25T02:35:57.707Z,101130
2017-05-25T02:36:57.723Z,101125
2017-05-25T02:37:58.025Z,101124
2017-05-25T02:38:57.861Z,101131
2017-05-25T02:39:57.428Z,101130
2017-05-25T02:40:57.983Z,101125
2017-05-25T02:41:57.467Z,101124
2017-05-25T02:42:58.001Z,101126
2017-05-25T02:43:58.365Z,101124
2017-05-25T02:44:58.110Z,101126
2017-05-25T02:45:58.169Z,101128
2017-05-25T02:46:57.640Z,101125
2017-05-25T02:47:57.710Z,101128
2017-05-25T02:48:58.261Z,101126
2017-05-25T02:49:58.051Z,101124
2017-05-25T02:50:58.328Z,101130
2017-05-25T02:51:58.474Z,101130
2017-05-25T02:52:57.956Z,101128
2017-05-25T02:53:57.964Z,101129
2017-05-25T02:54:58.574Z,101120
2017-05-25T02:55:58.316Z,101125
2017-05-25T02:56:58.635Z,101129
2017-05-25T02:57:58.765Z,101126
2017-05-25T02:58:58.845Z,101122
2017-05-25T02:59:58.813Z,101126
2017-05-25T03:00:58.337Z,101127
2017-05-25T03:01:58.668Z,101127
2017-05-25T03:02:58.980Z,101133
2017-05-25T03:03:59.050Z,101129
2017-05-25T03:04:58.587Z,101129
2017-05-25T03:05:58.613Z,101126
2017-05-25T03:06:59.190Z,101124
2017-05-25T03:07:58.944Z,101128
2017-05-25T03:08:58.761Z,101128
2017-05-25T03:09:59.394Z,101129
2017-05-25T03:10:59.401Z,101128
2017-05-25T03:11:58.863Z,101124
2017-05-25T03:12:59.464Z,101128
2017-05-25T03:13:59.297Z,101121
2017-05-25T03:14:59.523Z,101124
2017-05-25T03:15:58.998Z,101121
2017-05-25T03:16:59.669Z,101125
2017-05-25T03:17:59.693Z,101126
2017-05-25T03:18:59.241Z,101122
2017-05-25T03:19:59.669Z,101124
2017-05-25T03:20:59.865Z,101122
2017-05-25T03:21:59.907Z,101127
2017-05-25T03:22:59.912Z,101127
2017-05-25T03:23:59.918Z,101131
2017-05-25T03:24:59.983Z,101127
2017-05-25T03:25:59.687Z,101126
2017-05-25T03:27:00.052Z,101129
2017-05-25T03:28:00.112Z,101127
2017-05-25T03:28:59.531Z,101126
2017-05-25T03:29:59.617Z,101127
2017-05-25T03:30:59.750Z,101130
2017-05-25T03:32:00.032Z,101127
2017-05-25T03:33:00.298Z,101126
2017-05-25T03:33:59.885Z,101129
2017-05-25T03:34:59.895Z,101127
2017-05-25T03:35:59.979Z,101130
2017-05-25T03:36:59.993Z,101130
2017-05-25T03:38:00.232Z,101131
2017-05-25T03:39:00.628Z,101132
2017-05-25T03:40:00.169Z,101131
2017-05-25T03:41:00.678Z,101125
2017-05-25T03:42:00.153Z,101125
2017-05-25T03:43:00.724Z,101133
2017-05-25T03:44:01.111Z,101136
2017-05-25T03:45:00.918Z,101135
2017-05-25T03:46:00.421Z,101134
2017-05-25T03:47:00.463Z,101136
2017-05-25T03:48:00.554Z,101134
2017-05-25T03:49:01.149Z,101137
2017-05-25T03:50:00.972Z,101134
2017-05-25T03:51:01.215Z,101133
2017-05-25T03:52:00.685Z,101136
2017-05-25T03:53:00.739Z,101134
2017-05-25T03:54:00.799Z,101139
2017-05-25T03:55:00.901Z,101140
2017-05-25T03:56:01.740Z,101140
2017-05-25T03:57:01.450Z,101143
2017-05-25T03:58:01.496Z,101140
2017-05-25T03:59:01.022Z,101141
2017-05-25T04:00:01.547Z,101145
2017-05-25T04:01:01.107Z,101140
2017-05-25T04:02:01.475Z,101144
2017-05-25T04:03:01.235Z,101135
2017-05-25T04:04:01.321Z,101139
2017-05-25T04:05:01.359Z,101138
2017-05-25T04:06:02.000Z,101142
2017-05-25T04:07:02.065Z,101137
2017-05-25T04:08:01.881Z,101141
2017-05-25T04:09:02.152Z,101142
2017-05-25T04:10:02.189Z,101140
2017-05-25T04:11:01.700Z,101145
2017-05-25T04:12:02.353Z,101140
2017-05-25T04:13:01.863Z,101143
2017-05-25T04:14:02.803Z,101145
2017-05-25T04:15:02.061Z,101144
2017-05-25T04:16:02.083Z,101150
2017-05-25T04:17:02.703Z,101149
2017-05-25T04:18:02.711Z,101145
2017-05-25T04:19:02.746Z,101146
2017-05-25T04:20:03.037Z,101143
2017-05-25T04:21:02.353Z,101141
2017-05-25T04:22:02.376Z,101136
2017-05-25T04:23:02.523Z,101146
2017-05-25T04:24:02.562Z,101142
2017-05-25T04:25:02.649Z,101145
2017-05-25T04:26:02.977Z,101147
2017-05-25T04:27:02.785Z,101150
2017-05-25T04:28:02.795Z,101151
2017-05-25T04:29:03.365Z,101147
2017-05-25T04:30:02.943Z,101151
2017-05-25T04:31:02.960Z,101148
2017-05-25T04:32:03.952Z,101142
2017-05-25T04:33:03.621Z,101142
2017-05-25T04:34:03.103Z,101149
2017-05-25T04:35:03.228Z,101150
2017-05-25T04:36:03.287Z,101153
2017-05-25T04:37:03.792Z,101152
2017-05-25T04:38:04.775Z,101157
2017-05-25T04:39:03.350Z,101148
2017-05-25T04:40:03.413Z,101152
2017-05-25T04:41:03.453Z,101153
2017-05-25T04:42:03.528Z,101149
2017-05-25T04:43:03.629Z,101151
2017-05-25T04:44:04.432Z,101147
2017-05-25T04:45:04.219Z,101152
2017-05-25T04:46:03.692Z,101156
2017-05-25T04:47:03.700Z,101158
2017-05-25T04:48:04.273Z,101157
2017-05-25T04:49:04.363Z,101152
2017-05-25T04:50:04.095Z,101158
2017-05-25T04:51:03.824Z,101157
2017-05-25T04:52:04.496Z,101156
2017-05-25T04:53:04.542Z,101158
2017-05-25T04:54:04.567Z,101152
2017-05-25T04:55:04.626Z,101162
2017-05-25T04:56:04.888Z,101164
2017-05-25T04:57:04.743Z,101162
2017-05-25T04:58:04.844Z,101164
2017-05-25T04:59:04.292Z,101163
2017-05-25T05:00:04.918Z,101164
2017-05-25T05:01:04.928Z,101167
2017-05-25T05:02:04.762Z,101165
2017-05-25T05:03:05.042Z,101163
2017-05-25T05:04:04.596Z,101167
2017-05-25T05:05:04.579Z,101172
2017-05-25T05:06:04.689Z,101171
2017-05-25T05:07:05.180Z,101173
2017-05-25T05:08:05.517Z,101173
2017-05-25T05:09:04.661Z,101181
2017-05-25T05:10:04.729Z,101177
2017-05-25T05:11:05.296Z,101177
2017-05-25T05:12:04.792Z,101174
2017-05-25T05:13:04.861Z,101174
2017-05-25T05:14:05.242Z,101176
2017-05-25T05:15:05.530Z,101178
2017-05-25T05:16:05.088Z,101181
2017-05-25T05:17:05.121Z,101179
2017-05-25T05:18:06.576Z,101179
2017-05-25T05:19:05.182Z,101181
2017-05-25T05:20:06.018Z,101180
2017-05-25T05:21:05.289Z,101177
2017-05-25T05:22:05.848Z,101178
2017-05-25T05:23:05.893Z,101179
2017-05-25T05:24:05.376Z,101183
2017-05-25T05:25:05.920Z,101180
2017-05-25T05:26:05.759Z,101183
2017-05-25T05:27:05.496Z,101184
2017-05-25T05:28:06.068Z,101185
2017-05-25T05:29:05.675Z,101186
2017-05-25T05:30:06.212Z,101185
2017-05-25T05:31:06.247Z,101190
2017-05-25T05:32:06.614Z,101186
2017-05-25T05:33:06.380Z,101190
2017-05-25T05:34:05.888Z,101190
2017-05-25T05:35:05.932Z,101189
2017-05-25T05:36:06.485Z,101191
2017-05-25T05:37:06.498Z,101187
2017-05-25T05:38:06.280Z,101194
2017-05-25T05:39:06.605Z,101188
2017-05-25T05:40:06.105Z,101191
2017-05-25T05:41:06.667Z,101194
2017-05-25T05:42:06.214Z,101198
2017-05-25T05:43:06.173Z,101193
2017-05-25T05:44:07.053Z,101198
2017-05-25T05:45:06.283Z,101198
2017-05-25T05:46:06.912Z,101198
2017-05-25T05:47:07.014Z,101199
2017-05-25T05:48:07.077Z,101198
2017-05-25T05:49:06.586Z,101201
2017-05-25T05:50:06.883Z,101206
2017-05-25T05:51:06.711Z,101207
2017-05-25T05:52:07.297Z,101206
2017-05-25T05:53:07.282Z,101202
2017-05-25T05:54:06.847Z,101211
2017-05-25T05:55:06.860Z,101209
2017-05-25T05:56:07.713Z,101205
2017-05-25T05:57:07.487Z,101212
2017-05-25T05:58:07.096Z,101214
2017-05-25T05:59:07.093Z,101211
2017-05-25T06:00:07.051Z,101216
2017-05-25T06:01:07.199Z,101214
2017-05-25T06:02:08.166Z,101216
2017-05-25T06:03:07.924Z,101214
2017-05-25T06:04:07.258Z,101215
2017-05-25T06:05:07.262Z,101212
2017-05-25T06:06:07.911Z,101216
2017-05-25T06:07:07.957Z,101220
2017-05-25T06:08:08.297Z,101219
2017-05-25T06:09:08.054Z,101219
2017-05-25T06:10:07.510Z,101212
2017-05-25T06:11:08.188Z,101221
2017-05-25T06:12:07.738Z,101220
2017-05-25T06:13:07.716Z,101217
2017-05-25T06:14:08.177Z,101218
2017-05-25T06:15:07.854Z,101223
2017-05-25T06:16:07.918Z,101221
2017-05-25T06:17:07.874Z,101221
2017-05-25T06:18:08.479Z,101221
2017-05-25T06:19:07.986Z,101220
2017-05-25T06:20:08.282Z,101226
2017-05-25T06:21:08.597Z,101228
2017-05-25T06:22:08.076Z,101227
2017-05-25T06:23:08.135Z,101230
2017-05-25T06:24:08.682Z,101230
2017-05-25T06:25:08.191Z,101227
2017-05-25T06:26:08.549Z,101233
2017-05-25T06:27:08.382Z,101235
2017-05-25T06:28:08.378Z,101238
2017-05-25T06:29:08.437Z,101234
2017-05-25T06:30:08.457Z,101238
2017-05-25T06:31:09.140Z,101240
2017-05-25T06:32:08.941Z,101239
2017-05-25T06:33:08.739Z,101243
2017-05-25T06:34:09.274Z,101247
2017-05-25T06:35:09.319Z,101248
2017-05-25T06:36:08.798Z,101248
2017-05-25T06:37:09.388Z,101247
2017-05-25T06:38:09.141Z,101249
2017-05-25T06:39:08.927Z,101241
2017-05-25T06:40:08.910Z,101246
2017-05-25T06:41:09.491Z,101247
2017-05-25T06:42:09.540Z,101249
2017-05-25T06:43:09.583Z,101243
2017-05-25T06:44:09.360Z,101249
2017-05-25T06:45:09.144Z,101248
2017-05-25T06:46:09.228Z,101248
2017-05-25T06:47:09.278Z,101244
2017-05-25T06:48:09.321Z,101250
2017-05-25T06:49:09.912Z,101248
2017-05-25T06:50:10.155Z,101241
2017-05-25T06:51:09.423Z,101244
2017-05-25T06:52:10.020Z,101240
2017-05-25T06:53:10.102Z,101243
2017-05-25T06:54:10.102Z,101245
2017-05-25T06:55:10.061Z,101239
2017-05-25T06:56:10.379Z,101243
2017-05-25T06:57:09.611Z,101242
2017-05-25T06:58:10.151Z,101241
2017-05-25T06:59:10.192Z,101242
2017-05-25T07:00:10.261Z,101242
2017-05-25T07:01:10.330Z,101242
2017-05-25T07:02:10.575Z,101239
2017-05-25T07:03:09.770Z,101246
2017-05-25T07:04:09.832Z,101244
2017-05-25T07:05:09.926Z,101244
2017-05-25T07:06:10.505Z,101248
2017-05-25T07:07:10.552Z,101246
2017-05-25T07:08:10.386Z,101241
2017-05-25T07:09:10.125Z,101250
2017-05-25T07:10:10.207Z,101245
2017-05-25T07:11:10.700Z,101252
2017-05-25T07:12:10.279Z,101254
2017-05-25T07:13:10.289Z,101246
2017-05-25T07:14:10.642Z,101254
2017-05-25T07:15:10.976Z,101254
2017-05-25T07:16:10.411Z,101255
2017-05-25T07:17:10.979Z,101253
2017-05-25T07:18:11.093Z,101253
2017-05-25T07:19:11.083Z,101249
2017-05-25T07:20:11.429Z,101251
2017-05-25T07:21:11.213Z,101252
2017-05-25T07:22:10.738Z,101252
2017-05-25T07:23:11.332Z,101254
2017-05-25T07:24:10.895Z,101253
2017-05-25T07:25:11.427Z,101254
2017-05-25T07:26:11.817Z,101257
2017-05-25T07:27:10.994Z,101255
2017-05-25T07:28:11.573Z,101258
2017-05-25T07:29:11.659Z,101256
2017-05-25T07:30:11.247Z,101253
2017-05-25T07:31:11.774Z,101256
2017-05-25T07:32:11.485Z,101254
2017-05-25T07:33:11.853Z,101250
2017-05-25T07:34:11.345Z,101258
2017-05-25T07:35:11.886Z,101258
2017-05-25T07:36:11.945Z,101259
2017-05-25T07:37:11.914Z,101257
2017-05-25T07:38:11.721Z,101253
2017-05-25T07:39:11.538Z,101260
2017-05-25T07:40:12.127Z,101258
2017-05-25T07:41:11.559Z,101255
2017-05-25T07:42:12.151Z,101259
2017-05-25T07:43:11.729Z,101254
2017-05-25T07:44:12.582Z,101256
2017-05-25T07:45:12.351Z,101257
2017-05-25T07:46:12.408Z,101257
2017-05-25T07:47:12.430Z,101253
2017-05-25T07:48:11.929Z,101254
2017-05-25T07:49:11.994Z,101258
2017-05-25T07:50:12.282Z,101256
2017-05-25T07:51:12.018Z,101257
2017-05-25T07:52:12.129Z,101258
2017-05-25T07:53:12.659Z,101255
2017-05-25T07:54:12.627Z,101258
2017-05-25T07:55:12.128Z,101258
2017-05-25T07:56:12.407Z,101262
2017-05-25T07:57:12.776Z,101262
2017-05-25T07:58:12.881Z,101261
2017-05-25T07:59:12.390Z,101257
2017-05-25T08:00:12.445Z,101263
2017-05-25T08:01:12.566Z,101255
2017-05-25T08:02:12.779Z,101264
2017-05-25T08:03:13.151Z,101264
2017-05-25T08:04:13.167Z,101266
2017-05-25T08:05:12.598Z,101264
2017-05-25T08:06:13.178Z,101270
2017-05-25T08:07:12.744Z,101269
2017-05-25T08:08:13.060Z,101269
2017-05-25T08:09:13.315Z,101266
2017-05-25T08:10:13.283Z,101257
2017-05-25T08:11:13.367Z,101260
2017-05-25T08:12:12.873Z,101260
2017-05-25T08:13:13.521Z,101266
2017-05-25T08:14:13.354Z,101260
2017-05-25T08:15:13.534Z,101261
2017-05-25T08:16:12.985Z,101262
2017-05-25T08:17:13.551Z,101265
2017-05-25T08:18:13.564Z,101264
2017-05-25T08:19:13.172Z,101263
2017-05-25T08:20:13.427Z,101259
2017-05-25T08:21:13.769Z,101259
2017-05-25T08:22:13.857Z,101262
2017-05-25T08:23:13.317Z,101264
2017-05-25T08:24:13.924Z,101259
2017-05-25T08:25:13.968Z,101258
2017-05-25T08:26:14.327Z,101256
2017-05-25T08:27:14.107Z,101254
2017-05-25T08:28:14.168Z,101254
2017-05-25T08:29:14.222Z,101251
2017-05-25T08:30:14.348Z,101264
2017-05-25T08:31:13.817Z,101259
2017-05-25T08:32:14.441Z,101259
2017-05-25T08:33:13.929Z,101259
2017-05-25T08:34:14.010Z,101262
2017-05-25T08:35:14.558Z,101265
2017-05-25T08:36:14.551Z,101261
2017-05-25T08:37:14.654Z,101261
2017-05-25T08:38:14.103Z,101262
2017-05-25T08:39:14.148Z,101261
2017-05-25T08:40:14.246Z,101262
2017-05-25T08:41:14.278Z,101257
2017-05-25T08:42:14.357Z,101265
2017-05-25T08:43:14.392Z,101263
2017-05-25T08:44:15.020Z,101257
2017-05-25T08:45:14.517Z,101264
2017-05-25T08:46:14.494Z,101269
2017-05-25T08:47:15.129Z,101262
2017-05-25T08:48:14.585Z,101268
2017-05-25T08:49:15.116Z,101270
2017-05-25T08:50:14.633Z,101269
2017-05-25T08:51:14.649Z,101265
2017-05-25T08:52:14.700Z,101265
2017-05-25T08:53:15.312Z,101264
2017-05-25T08:54:15.331Z,101259
2017-05-25T08:55:14.897Z,101260
2017-05-25T08:56:15.454Z,101263
2017-05-25T08:57:14.997Z,101263
2017-05-25T08:58:15.061Z,101258
2017-05-25T08:59:15.146Z,101257
2017-05-25T09:00:15.230Z,101253
2017-05-25T09:01:15.806Z,101252
2017-05-25T09:02:15.307Z,101246
2017-05-25T09:03:15.965Z,101250
2017-05-25T09:04:16.005Z,101250
2017-05-25T09:05:15.527Z,101256
2017-05-25T09:06:15.549Z,101258
2017-05-25T09:07:15.603Z,101263
2017-05-25T09:08:15.689Z,101260
2017-05-25T09:09:16.197Z,101253
2017-05-25T09:10:15.702Z,101261
2017-05-25T09:11:16.278Z,101258
2017-05-25T09:12:16.312Z,101255
2017-05-25T09:13:15.791Z,101260
2017-05-25T09:14:16.411Z,101266
2017-05-25T09:15:16.499Z,101264
2017-05-25T09:16:15.975Z,101266
2017-05-25T09:17:16.006Z,101266
2017-05-25T09:18:16.610Z,101263
2017-05-25T09:19:16.723Z,101269
2017-05-25T09:20:16.270Z,101271
2017-05-25T09:21:16.284Z,101272
2017-05-25T09:22:16.369Z,101275
2017-05-25T09:23:16.975Z,101275
2017-05-25T09:24:16.420Z,101270
2017-05-25T09:25:17.076Z,101271
2017-05-25T09:26:16.583Z,101269
2017-05-25T09:27:16.643Z,101273
2017-05-25T09:28:17.152Z,101269
2017-05-25T09:29:16.619Z,101273
2017-05-25T09:30:16.754Z,101270
2017-05-25T09:31:17.275Z,101272
2017-05-25T09:32:16.742Z,101268
2017-05-25T09:33:17.378Z,101263
2017-05-25T09:34:17.499Z,101265
2017-05-25T09:35:17.551Z,101265
2017-05-25T09:36:17.529Z,101268
2017-05-25T09:37:17.610Z,101266
2017-05-25T09:38:17.127Z,101258
2017-05-25T09:39:17.116Z,101265
2017-05-25T09:40:17.210Z,101270
2017-05-25T09:41:17.290Z,101266
2017-05-25T09:42:17.326Z,101268
2017-05-25T09:43:17.878Z,101267
2017-05-25T09:44:17.909Z,101270
2017-05-25T09:45:17.938Z,101269
2017-05-25T09:46:17.496Z,101270
2017-05-25T09:47:18.011Z,101267
2017-05-25T09:48:18.055Z,101269
2017-05-25T09:49:18.101Z,101268
2017-05-25T09:50:18.149Z,101272
2017-05-25T09:51:17.693Z,101270
2017-05-25T09:52:18.243Z,101266
2017-05-25T09:53:17.696Z,101272
2017-05-25T09:54:18.310Z,101266
2017-05-25T09:55:18.349Z,101269
2017-05-25T09:56:17.884Z,101267
2017-05-25T09:57:17.914Z,101265
2017-05-25T09:58:17.961Z,101268
2017-05-25T09:59:18.580Z,101265
2017-05-25T10:00:18.117Z,101266
2017-05-25T10:01:18.635Z,101262
2017-05-25T10:02:18.691Z,101260
2017-05-25T10:03:18.830Z,101265
2017-05-25T10:04:18.278Z,101265
2017-05-25T10:05:18.887Z,101266
2017-05-25T10:06:18.934Z,101268
2017-05-25T10:07:19.029Z,101266
2017-05-25T10:08:19.008Z,101269
2017-05-25T10:09:18.535Z,101269
2017-05-25T10:10:18.582Z,101270
2017-05-25T10:11:19.109Z,101258
2017-05-25T10:12:19.122Z,101259
2017-05-25T10:13:18.663Z,101260
2017-05-25T10:14:18.721Z,101265
2017-05-25T10:15:18.813Z,101259
2017-05-25T10:16:19.317Z,101259
2017-05-25T10:17:19.361Z,101257
2017-05-25T10:18:19.493Z,101260
2017-05-25T10:19:18.915Z,101256
2017-05-25T10:20:19.459Z,101255
2017-05-25T10:21:19.024Z,101257
2017-05-25T10:22:19.036Z,101249
2017-05-25T10:23:19.127Z,101251
2017-05-25T10:24:19.191Z,101253
2017-05-25T10:25:19.183Z,101250
2017-05-25T10:26:19.833Z,101256
2017-05-25T10:27:19.394Z,101254
2017-05-25T10:28:19.926Z,101258
2017-05-25T10:29:19.457Z,101255
2017-05-25T10:30:19.525Z,101256
2017-05-25T10:31:20.097Z,101249
2017-05-25T10:32:20.125Z,101247
2017-05-25T10:33:20.148Z,101252
2017-05-25T10:34:19.681Z,101249
2017-05-25T10:35:19.763Z,101251
2017-05-25T10:36:19.881Z,101243
2017-05-25T10:37:20.437Z,101245
2017-05-25T10:38:19.996Z,101243
2017-05-25T10:39:20.585Z,101234
2017-05-25T10:40:20.633Z,101236
2017-05-25T10:41:20.085Z,101232
2017-05-25T10:42:20.671Z,101231
2017-05-25T10:43:20.186Z,101231
2017-05-25T10:44:20.245Z,101234
2017-05-25T10:45:20.897Z,101237
2017-05-25T10:46:20.966Z,101237
2017-05-25T10:47:20.933Z,101230
2017-05-25T10:48:20.400Z,101239
2017-05-25T10:49:21.041Z,101238
2017-05-25T10:50:21.090Z,101231
2017-05-25T10:51:21.116Z,101236
2017-05-25T10:52:20.628Z,101234
2017-05-25T10:53:21.207Z,101233
2017-05-25T10:54:20.724Z,101239
2017-05-25T10:55:21.267Z,101243
2017-05-25T10:56:21.286Z,101239
2017-05-25T10:57:20.859Z,101240
2017-05-25T10:58:21.352Z,101229
2017-05-25T10:59:20.948Z,101234
2017-05-25T11:00:21.629Z,101239
2017-05-25T11:01:21.616Z,101234
2017-05-25T11:02:21.056Z,101228
2017-05-25T11:03:21.714Z,101233
2017-05-25T11:04:21.793Z,101228
2017-05-25T11:05:21.828Z,101232
2017-05-25T11:06:21.361Z,101230
2017-05-25T11:07:21.926Z,101227
2017-05-25T11:08:21.952Z,101230
2017-05-25T11:09:21.469Z,101233
2017-05-25T11:10:21.568Z,101230
2017-05-25T11:11:22.072Z,101227
2017-05-25T11:12:22.163Z,101234
2017-05-25T11:13:21.679Z,101228
2017-05-25T11:14:22.304Z,101227
2017-05-25T11:15:21.857Z,101232
2017-05-25T11:16:21.839Z,101231
2017-05-25T11:17:22.448Z,101233
2017-05-25T11:18:22.017Z,101232
2017-05-25T11:19:22.685Z,101221
2017-05-25T11:20:22.749Z,101226
2017-05-25T11:21:22.774Z,101223
2017-05-25T11:22:22.367Z,101223
2017-05-25T11:23:22.999Z,101223
2017-05-25T11:24:22.510Z,101221
2017-05-25T11:25:23.036Z,101218
2017-05-25T11:26:22.524Z,101217
2017-05-25T11:27:23.113Z,101220
2017-05-25T11:28:22.675Z,101217
2017-05-25T11:29:22.671Z,101219
2017-05-25T11:30:23.296Z,101220
2017-05-25T11:31:22.816Z,101213
2017-05-25T11:32:22.860Z,101217
2017-05-25T11:33:22.912Z,101216
2017-05-25T11:34:23.496Z,101214
2017-05-25T11:35:22.971Z,101215
2017-05-25T11:36:23.541Z,101211
2017-05-25T11:37:23.062Z,101217
2017-05-25T11:38:23.644Z,101211
2017-05-25T11:39:23.690Z,101210
2017-05-25T11:40:23.751Z,101207
2017-05-25T11:41:23.183Z,101211
2017-05-25T11:42:23.775Z,101217
2017-05-25T11:43:23.332Z,101217
2017-05-25T11:44:23.951Z,101212
2017-05-25T11:45:23.398Z,101219
2017-05-25T11:46:23.939Z,101212
2017-05-25T11:47:23.973Z,101216
2017-05-25T11:48:23.992Z,101213
2017-05-25T11:49:23.530Z,101213
2017-05-25T11:50:24.094Z,101207
2017-05-25T11:51:24.130Z,101210
2017-05-25T11:52:24.179Z,101213
2017-05-25T11:53:23.613Z,101211
2017-05-25T11:54:24.200Z,101205
2017-05-25T11:55:23.723Z,101209
2017-05-25T11:56:24.358Z,101208
2017-05-25T11:57:23.816Z,101210
2017-05-25T11:58:24.355Z,101210
2017-05-25T11:59:24.420Z,101200
2017-05-25T12:00:24.536Z,101207
2017-05-25T12:01:24.599Z,101211
2017-05-25T12:02:24.671Z,101209
2017-05-25T12:03:24.701Z,101212
2017-05-25T12:04:24.803Z,101204
2017-05-25T12:05:24.268Z,101207
2017-05-25T12:06:24.872Z,101204
2017-05-25T12:13:37.208Z,101194
2017-05-25T12:14:36.942Z,101194
2017-05-25T12:15:36.939Z,101198
2017-05-25T12:16:36.961Z,101199
2017-05-25T12:17:37.028Z,101200
2017-05-25T12:18:37.103Z,101193
2017-05-25T12:19:36.920Z,101199
2017-05-25T12:20:37.191Z,101197
2017-05-25T12:21:37.238Z,101195
2017-05-25T12:22:37.310Z,101191
2017-05-25T12:23:37.352Z,101183
2017-05-25T12:24:37.463Z,101189
2017-05-25T12:25:37.204Z,101187
2017-05-25T12:26:37.480Z,101187
2017-05-25T12:27:37.575Z,101192
2017-05-25T12:28:37.158Z,101185
2017-05-25T12:29:37.194Z,101188
2017-05-25T12:30:37.823Z,101186
2017-05-25T12:31:37.647Z,101188
2017-05-25T12:32:37.395Z,101193
2017-05-25T12:33:38.005Z,101193
2017-05-25T12:34:37.484Z,101187
2017-05-25T12:35:37.619Z,101181
2017-05-25T12:36:38.187Z,101180